createdAt,value
2023-09-06T00:00:02.633Z,18.3
2023-09-06T00:01:01.999Z,18.4
2023-09-06T00:02:01.894Z,18.5
2023-09-06T00:03:01.871Z,18.2
2023-09-06T00:04:02.031Z,19
2023-09-06T00:05:01.708Z,19
2023-09-06T00:06:01.621Z,18.7
2023-09-06T00:07:01.599Z,18.4
2023-09-06T00:08:01.529Z,18.4
2023-09-06T00:09:01.515Z,18.2
2023-09-06T00:10:01.518Z,18.1
2023-09-06T00:11:01.404Z,18.4
2023-09-06T00:12:01.365Z,18.4
2023-09-06T00:13:01.369Z,18.3
2023-09-06T00:14:01.240Z,18.3
2023-09-06T00:15:02.280Z,18.6
2023-09-06T00:16:01.960Z,18.5
2023-09-06T00:17:01.963Z,18.6
2023-09-06T00:18:01.880Z,18.7
2023-09-06T00:19:01.847Z,18.6
2023-09-06T00:20:01.869Z,18.6
2023-09-06T00:21:01.939Z,19.1
2023-09-06T00:22:01.912Z,19.4
2023-09-06T00:23:01.842Z,19.5
2023-09-06T00:24:01.798Z,19.1
2023-09-06T00:25:01.717Z,19
2023-09-06T00:26:01.647Z,18.7
2023-09-06T00:27:01.627Z,18.7
2023-09-06T00:28:01.569Z,19.2
2023-09-06T00:29:01.505Z,19.1
2023-09-06T00:30:01.538Z,18.6
2023-09-06T00:31:01.425Z,18.5
2023-09-06T00:32:01.553Z,18.3
2023-09-06T00:33:01.486Z,18.4
2023-09-06T00:34:01.414Z,18.2
2023-09-06T00:35:01.347Z,19.1
2023-09-06T00:36:01.288Z,19.4
2023-09-06T00:37:02.259Z,19.7
2023-09-06T00:38:02.189Z,19.8
2023-09-06T00:39:02.163Z,20
2023-09-06T00:40:02.197Z,20.1
2023-09-06T00:41:02.132Z,19.9
2023-09-06T00:42:02.020Z,20.2
2023-09-06T00:43:02.026Z,20.2
2023-09-06T00:44:02.280Z,20.1
2023-09-06T00:45:02.272Z,20.2
2023-09-06T00:46:02.128Z,19.7
2023-09-06T00:47:02.099Z,19.9
2023-09-06T00:48:02.069Z,19.7
2023-09-06T00:49:02.042Z,19.7
2023-09-06T00:50:01.962Z,19
2023-09-06T00:51:01.881Z,18.9
2023-09-06T00:52:01.856Z,18.6
2023-09-06T00:53:01.778Z,18.2
2023-09-06T00:54:01.744Z,18.7
2023-09-06T00:55:01.718Z,19.3
2023-09-06T00:56:01.678Z,19.7
2023-09-06T00:57:02.082Z,19.7
2023-09-06T00:58:01.755Z,20
2023-09-06T00:59:01.677Z,19.9
2023-09-06T01:00:01.779Z,19.9
2023-09-06T01:01:01.567Z,20
2023-09-06T01:02:01.852Z,20.2
2023-09-06T01:03:02.226Z,20.4
2023-09-06T01:04:02.065Z,20.2
2023-09-06T01:05:01.999Z,19.9
2023-09-06T01:06:01.898Z,19.9
2023-09-06T01:07:01.932Z,19.7
2023-09-06T01:08:01.786Z,19.7
2023-09-06T01:09:01.731Z,19.2
2023-09-06T01:10:01.695Z,18.7
2023-09-06T01:11:01.568Z,18.4
2023-09-06T01:12:01.617Z,18.2
2023-09-06T01:13:01.472Z,18.1
2023-09-06T01:14:01.388Z,18
2023-09-06T01:15:01.409Z,18.7
2023-09-06T01:16:01.294Z,18.7
2023-09-06T01:17:02.763Z,19
2023-09-06T01:18:01.603Z,19.3
2023-09-06T01:19:01.494Z,19.4
2023-09-06T01:20:01.454Z,18.5
2023-09-06T01:21:01.404Z,17.9
2023-09-06T01:22:01.377Z,17.8
2023-09-06T01:23:01.398Z,17.6
2023-09-06T01:24:01.291Z,18
2023-09-06T01:25:02.330Z,17.6
2023-09-06T01:26:02.219Z,18
2023-09-06T01:27:02.155Z,18.4
2023-09-06T01:28:02.285Z,18.6
2023-09-06T01:29:02.090Z,18.2
2023-09-06T01:30:02.054Z,18.3
2023-09-06T01:31:01.782Z,17.8
2023-09-06T01:32:01.695Z,18
2023-09-06T01:33:01.633Z,18.2
2023-09-06T01:34:01.657Z,18.6
2023-09-06T01:35:01.436Z,18.6
2023-09-06T01:36:01.363Z,18.5
2023-09-06T01:37:01.415Z,18.3
2023-09-06T01:38:01.308Z,18
2023-09-06T01:39:01.332Z,17.9
2023-09-06T01:40:02.302Z,17.5
2023-09-06T01:41:02.197Z,18.4
2023-09-06T01:42:02.222Z,18.3
2023-09-06T01:43:02.168Z,18.1
2023-09-06T01:44:02.175Z,17.7
2023-09-06T01:45:02.150Z,17.8
2023-09-06T01:46:02.061Z,17.7
2023-09-06T01:47:01.955Z,17.7
2023-09-06T01:48:01.899Z,17.6
2023-09-06T01:49:01.832Z,17.4
2023-09-06T01:50:01.765Z,17.4
2023-09-06T01:51:01.704Z,18.1
2023-09-06T01:52:01.688Z,17.9
2023-09-06T01:53:01.597Z,17.7
2023-09-06T01:54:01.537Z,17.8
2023-09-06T01:55:01.922Z,17.8
2023-09-06T01:56:01.868Z,17.5
2023-09-06T01:57:01.820Z,17.4
2023-09-06T01:58:01.779Z,17.7
2023-09-06T01:59:01.710Z,17.9
2023-09-06T02:00:03.042Z,18.6
2023-09-06T02:01:01.460Z,17.9
2023-09-06T02:02:01.424Z,18.3
2023-09-06T02:03:01.412Z,18.2
2023-09-06T02:04:01.387Z,18.6
2023-09-06T02:05:01.429Z,19.1
2023-09-06T02:06:01.832Z,18.7
2023-09-06T02:07:01.484Z,18.8
2023-09-06T02:08:01.378Z,19.1
2023-09-06T02:09:01.347Z,18.3
2023-09-06T02:10:01.344Z,18.7
2023-09-06T02:11:02.392Z,19.2
2023-09-06T02:12:02.242Z,19.1
2023-09-06T02:13:02.242Z,19
2023-09-06T02:14:02.168Z,19
2023-09-06T02:15:02.168Z,18.7
2023-09-06T02:16:02.004Z,18.3
2023-09-06T02:17:02.106Z,18.3
2023-09-06T02:18:02.071Z,18
2023-09-06T02:19:02.042Z,17.9
2023-09-06T02:20:01.991Z,17.8
2023-09-06T02:21:01.918Z,18
2023-09-06T02:22:01.873Z,17.9
2023-09-06T02:23:01.768Z,17.5
2023-09-06T02:24:01.698Z,18.5
2023-09-06T02:25:01.650Z,18.4
2023-09-06T02:26:01.588Z,18.3
2023-09-06T02:27:01.582Z,18.6
2023-09-06T02:28:01.547Z,18.8
2023-09-06T02:29:01.454Z,18.9
2023-09-06T02:30:01.387Z,19
2023-09-06T02:31:02.064Z,18.6
2023-09-06T02:32:02.175Z,18.2
2023-09-06T02:33:02.111Z,18.3
2023-09-06T02:34:02.130Z,18
2023-09-06T02:35:02.058Z,18.4
2023-09-06T02:36:02.020Z,19
2023-09-06T02:37:02.073Z,19.1
2023-09-06T02:38:01.948Z,19.2
2023-09-06T02:39:01.889Z,19.2
2023-09-06T02:40:01.909Z,19.2
2023-09-06T02:41:01.823Z,19.4
2023-09-06T02:42:01.791Z,19.4
2023-09-06T02:43:01.708Z,19.1
2023-09-06T02:44:01.657Z,19.6
2023-09-06T02:45:01.621Z,19.5
2023-09-06T02:46:01.607Z,19.4
2023-09-06T02:47:01.559Z,19.3
2023-09-06T02:48:01.491Z,19.7
2023-09-06T02:49:01.385Z,19.6
2023-09-06T02:50:01.350Z,19.5
2023-09-06T02:51:01.354Z,19.4
2023-09-06T02:52:01.352Z,19.7
2023-09-06T02:53:02.255Z,19.7
2023-09-06T02:54:02.228Z,19.6
2023-09-06T02:55:02.237Z,19.7
2023-09-06T02:56:02.166Z,19.7
2023-09-06T02:57:01.566Z,19.8
2023-09-06T02:58:01.432Z,19.8
2023-09-06T02:59:01.361Z,19.8
2023-09-06T03:00:03.229Z,20
2023-09-06T03:01:01.967Z,20
2023-09-06T03:02:02.035Z,19.7
2023-09-06T03:03:01.871Z,19.5
2023-09-06T03:04:01.882Z,19.6
2023-09-06T03:05:01.788Z,19.5
2023-09-06T03:06:01.732Z,19.7
2023-09-06T03:07:01.865Z,19.3
2023-09-06T03:08:01.653Z,19.5
2023-09-06T03:09:01.593Z,19.4
2023-09-06T03:10:01.610Z,19.4
2023-09-06T03:11:01.490Z,19.4
2023-09-06T03:12:01.540Z,19.5
2023-09-06T03:13:01.473Z,19.4
2023-09-06T03:14:01.546Z,19.5
2023-09-06T03:15:01.512Z,19.5
2023-09-06T03:16:02.150Z,19.3
2023-09-06T03:17:02.208Z,18.5
2023-09-06T03:18:02.131Z,18.5
2023-09-06T03:19:02.080Z,18.4
2023-09-06T03:20:02.066Z,18.6
2023-09-06T03:21:02.019Z,18.7
2023-09-06T03:22:02.022Z,19.2
2023-09-06T03:23:01.970Z,18.8
2023-09-06T03:24:01.936Z,18.2
2023-09-06T03:25:01.910Z,18.5
2023-09-06T03:26:01.867Z,18.3
2023-09-06T03:27:01.946Z,18
2023-09-06T03:28:01.825Z,17.5
2023-09-06T03:29:01.755Z,17.3
2023-09-06T03:30:01.725Z,17.7
2023-09-06T03:31:01.493Z,17.5
2023-09-06T03:32:01.458Z,17.7
2023-09-06T03:33:01.871Z,17.5
2023-09-06T03:34:01.739Z,17.7
2023-09-06T03:35:01.817Z,17.3
2023-09-06T03:36:01.798Z,17.6
2023-09-06T03:37:01.711Z,17.2
2023-09-06T03:38:01.709Z,17.4
2023-09-06T03:39:01.603Z,17.4
2023-09-06T03:40:01.490Z,17.3
2023-09-06T03:41:01.441Z,17.5
2023-09-06T03:42:01.399Z,17.2
2023-09-06T03:43:01.406Z,17.4
2023-09-06T03:44:01.331Z,16.9
2023-09-06T03:45:01.303Z,17
2023-09-06T03:46:02.074Z,17
2023-09-06T03:47:02.128Z,17.2
2023-09-06T03:48:02.296Z,17.1
2023-09-06T03:49:01.743Z,16.6
2023-09-06T03:50:01.558Z,16.4
2023-09-06T03:51:01.530Z,16.5
2023-09-06T03:52:01.421Z,17.1
2023-09-06T03:53:01.415Z,17
2023-09-06T03:54:01.353Z,16.8
2023-09-06T03:55:02.298Z,16.3
2023-09-06T03:56:02.520Z,16.2
2023-09-06T03:57:01.447Z,16.1
2023-09-06T03:58:01.456Z,16.2
2023-09-06T03:59:01.599Z,16.1
2023-09-06T04:00:01.653Z,16.4
2023-09-06T04:01:02.173Z,17.2
2023-09-06T04:02:02.165Z,17.3
2023-09-06T04:03:02.341Z,17.1
2023-09-06T04:04:01.597Z,16.9
2023-09-06T04:05:01.960Z,17.3
2023-09-06T04:06:01.842Z,17.9
2023-09-06T04:07:01.773Z,18.2
2023-09-06T04:08:01.813Z,18.5
2023-09-06T04:09:01.867Z,18.5
2023-09-06T04:10:01.903Z,18.8
2023-09-06T04:11:01.858Z,18.8
2023-09-06T04:12:01.852Z,19
2023-09-06T04:13:01.785Z,19.1
2023-09-06T04:14:01.742Z,19.1
2023-09-06T04:15:01.622Z,19.1
2023-09-06T04:16:01.521Z,19.3
2023-09-06T04:17:01.541Z,19.2
2023-09-06T04:18:01.521Z,19.4
2023-09-06T04:19:01.899Z,19.3
2023-09-06T04:20:01.653Z,19.4
2023-09-06T04:21:01.645Z,19.3
2023-09-06T04:22:01.587Z,19.1
2023-09-06T04:23:01.554Z,19
2023-09-06T04:24:02.747Z,19.4
2023-09-06T04:25:01.414Z,19.3
2023-09-06T04:26:01.473Z,19.5
2023-09-06T04:27:01.658Z,19.4
2023-09-06T04:28:01.623Z,19.3
2023-09-06T04:29:01.583Z,19.6
2023-09-06T04:30:01.634Z,19.5
2023-09-06T04:31:02.161Z,19.4
2023-09-06T04:32:02.156Z,19.7
2023-09-06T04:33:02.120Z,19.7
2023-09-06T04:34:02.059Z,19.6
2023-09-06T04:35:02.105Z,19.6
2023-09-06T04:36:01.960Z,19.6
2023-09-06T04:37:01.898Z,19.6
2023-09-06T04:38:01.871Z,19.5
2023-09-06T04:39:01.825Z,19.4
2023-09-06T04:40:01.795Z,19.6
2023-09-06T04:41:01.717Z,19.5
2023-09-06T04:42:01.677Z,19.5
2023-09-06T04:43:01.627Z,19.5
2023-09-06T04:44:01.627Z,18.9
2023-09-06T04:45:02.276Z,19.2
2023-09-06T04:46:02.017Z,19.6
2023-09-06T04:47:01.948Z,19.7
2023-09-06T04:48:01.942Z,19.5
2023-09-06T04:49:01.900Z,19.5
2023-09-06T04:50:01.823Z,19.7
2023-09-06T04:51:01.796Z,19.6
2023-09-06T04:52:01.783Z,19.5
2023-09-06T04:53:01.711Z,19.6
2023-09-06T04:54:01.648Z,19.6
2023-09-06T04:55:01.605Z,19.8
2023-09-06T04:56:01.601Z,19.7
2023-09-06T04:57:01.527Z,19.7
2023-09-06T04:58:01.474Z,19.6
2023-09-06T04:59:01.431Z,19.7
2023-09-06T05:00:02.182Z,19.8
2023-09-06T05:01:02.182Z,19.9
2023-09-06T05:02:02.084Z,19.9
2023-09-06T05:03:02.076Z,19.6
2023-09-06T05:04:02.127Z,19.8
2023-09-06T05:05:02.066Z,20
2023-09-06T05:06:02.086Z,19.9
2023-09-06T05:07:02.015Z,20
2023-09-06T05:08:01.973Z,20.1
2023-09-06T05:09:01.985Z,20
2023-09-06T05:10:01.881Z,20
2023-09-06T05:11:01.916Z,19.9
2023-09-06T05:12:01.770Z,20
2023-09-06T05:13:01.718Z,20.2
2023-09-06T05:14:01.698Z,20
2023-09-06T05:15:01.653Z,19.9
2023-09-06T05:16:01.432Z,20
2023-09-06T05:17:01.429Z,20
2023-09-06T05:18:01.269Z,20.2
2023-09-06T05:19:02.261Z,20.3
2023-09-06T05:20:02.207Z,20.4
2023-09-06T05:21:02.151Z,20.3
2023-09-06T05:22:02.162Z,20.4
2023-09-06T05:23:02.079Z,20.5
2023-09-06T05:24:02.024Z,20.6
2023-09-06T05:25:01.967Z,20.6
2023-09-06T05:26:01.923Z,20.5
2023-09-06T05:27:01.879Z,20.5
2023-09-06T05:28:01.910Z,20.4
2023-09-06T05:29:01.816Z,20.3
2023-09-06T05:30:01.763Z,20.2
2023-09-06T05:31:01.393Z,19.9
2023-09-06T05:32:01.365Z,20.4
2023-09-06T05:33:01.375Z,20.5
2023-09-06T05:34:02.373Z,20.4
2023-09-06T05:35:01.248Z,20.5
2023-09-06T05:36:02.259Z,20
2023-09-06T05:37:02.308Z,20
2023-09-06T05:38:02.274Z,20.3
2023-09-06T05:39:02.152Z,20.5
2023-09-06T05:40:02.134Z,20.5
2023-09-06T05:41:02.200Z,20
2023-09-06T05:42:02.070Z,20.1
2023-09-06T05:43:02.020Z,20.5
2023-09-06T05:44:02.014Z,20.1
2023-09-06T05:45:01.954Z,19.6
2023-09-06T05:46:01.747Z,19.3
2023-09-06T05:47:01.737Z,19.9
2023-09-06T05:48:01.870Z,20.1
2023-09-06T05:49:02.143Z,20
2023-09-06T05:50:02.259Z,20.3
2023-09-06T05:51:02.162Z,20.5
2023-09-06T05:52:02.106Z,20.6
2023-09-06T05:53:02.540Z,20.4
2023-09-06T05:54:02.247Z,20.5
2023-09-06T05:55:02.215Z,20.2
2023-09-06T05:56:02.215Z,20.1
2023-09-06T05:57:02.152Z,20.3
2023-09-06T05:58:02.098Z,20
2023-09-06T05:59:02.079Z,20
2023-09-06T06:00:02.549Z,19.4
2023-09-06T06:01:01.715Z,19.8
2023-09-06T06:02:01.707Z,19.8
2023-09-06T06:03:01.675Z,20.1
2023-09-06T06:04:01.727Z,19.5
2023-09-06T06:05:01.776Z,18.9
2023-09-06T06:06:01.671Z,18.9
2023-09-06T06:07:01.639Z,18.9
2023-09-06T06:08:01.585Z,19.6
2023-09-06T06:09:01.632Z,19.8
2023-09-06T06:10:01.442Z,19.9
2023-09-06T06:11:01.450Z,20
2023-09-06T06:12:01.411Z,19.8
2023-09-06T06:13:01.372Z,19.5
2023-09-06T06:14:10.106Z,19.3
2023-09-06T06:15:02.295Z,19.4
2023-09-06T06:16:02.203Z,19.2
2023-09-06T06:17:02.135Z,19.3
2023-09-06T06:18:02.090Z,19
2023-09-06T06:19:02.068Z,19.5
2023-09-06T06:20:02.018Z,19.7
2023-09-06T06:21:02.161Z,19.7
2023-09-06T06:22:02.082Z,19.7
2023-09-06T06:23:02.101Z,19.8
2023-09-06T06:24:02.100Z,19.5
2023-09-06T06:25:02.026Z,19.7
2023-09-06T06:26:01.941Z,19.9
2023-09-06T06:27:01.889Z,19.9
2023-09-06T06:28:02.006Z,20.2
2023-09-06T06:29:02.142Z,20.2
2023-09-06T06:30:01.358Z,20.1
2023-09-06T06:31:02.271Z,20.4
2023-09-06T06:32:02.290Z,20.3
2023-09-06T06:33:01.618Z,20
2023-09-06T06:34:01.844Z,19.7
2023-09-06T06:35:01.752Z,20.2
2023-09-06T06:36:01.681Z,20.3
2023-09-06T06:37:01.658Z,20
2023-09-06T06:38:01.652Z,20
2023-09-06T06:39:01.644Z,19.6
2023-09-06T06:40:01.850Z,20.1
2023-09-06T06:41:01.797Z,20.2
2023-09-06T06:42:01.714Z,20.3
2023-09-06T06:43:01.682Z,20.1
2023-09-06T06:44:02.144Z,20.1
2023-09-06T06:45:02.003Z,20.3
2023-09-06T06:46:01.973Z,20.1
2023-09-06T06:47:01.917Z,19.9
2023-09-06T06:48:01.867Z,19.9
2023-09-06T06:49:02.284Z,20.1
2023-09-06T06:50:02.026Z,20
2023-09-06T06:51:01.968Z,20.1
2023-09-06T06:52:01.946Z,20.2
2023-09-06T06:53:01.903Z,20.1
2023-09-06T06:54:02.367Z,20.4
2023-09-06T06:55:02.295Z,20.3
2023-09-06T06:56:02.261Z,20.2
2023-09-06T06:57:02.202Z,20.2
2023-09-06T06:58:02.184Z,20.3
2023-09-06T06:59:02.270Z,20.3
2023-09-06T07:00:02.298Z,20.4
2023-09-06T07:01:01.840Z,20.2
2023-09-06T07:02:01.783Z,20.6
2023-09-06T07:03:01.794Z,20.4
2023-09-06T07:04:01.708Z,20.5
2023-09-06T07:05:01.647Z,20.4
2023-09-06T07:06:01.524Z,20.4
2023-09-06T07:07:01.491Z,20.5
2023-09-06T07:08:01.438Z,20.5
2023-09-06T07:09:01.389Z,20.6
2023-09-06T07:10:01.462Z,20.6
2023-09-06T07:11:01.373Z,20.6
2023-09-06T07:12:01.323Z,20.6
2023-09-06T07:13:01.288Z,20.7
2023-09-06T07:14:02.301Z,21
2023-09-06T07:15:02.718Z,20.9
2023-09-06T07:16:01.370Z,20.9
2023-09-06T07:17:02.376Z,20.8
2023-09-06T07:18:01.591Z,20.9
2023-09-06T07:19:01.515Z,20.7
2023-09-06T07:20:01.500Z,20.6
2023-09-06T07:21:01.475Z,20.8
2023-09-06T07:22:01.410Z,21.2
2023-09-06T07:23:01.388Z,20.9
2023-09-06T07:24:01.375Z,20.9
2023-09-06T07:25:01.818Z,21
2023-09-06T07:26:02.047Z,21
2023-09-06T07:27:01.949Z,21
2023-09-06T07:28:01.861Z,21.1
2023-09-06T07:29:01.842Z,21.3
2023-09-06T07:30:01.736Z,21.2
2023-09-06T07:31:02.202Z,21.2
2023-09-06T07:32:02.127Z,21.2
2023-09-06T07:33:02.136Z,21.2
2023-09-06T07:34:02.072Z,21.4
2023-09-06T07:35:02.027Z,21.1
2023-09-06T07:36:02.020Z,21.1
2023-09-06T07:37:01.976Z,21.3
2023-09-06T07:38:01.973Z,21.5
2023-09-06T07:39:01.850Z,21.2
2023-09-06T07:40:01.791Z,21.5
2023-09-06T07:41:01.783Z,21.8
2023-09-06T07:42:02.012Z,21.8
2023-09-06T07:43:01.984Z,21.5
2023-09-06T07:44:01.950Z,21.3
2023-09-06T07:45:01.928Z,21.7
2023-09-06T07:46:01.734Z,21.8
2023-09-06T07:47:02.009Z,21.9
2023-09-06T07:48:02.344Z,21.8
2023-09-06T07:49:01.672Z,21.9
2023-09-06T07:50:01.771Z,22
2023-09-06T07:51:01.736Z,22.1
2023-09-06T07:52:01.687Z,22.3
2023-09-06T07:53:01.607Z,22.4
2023-09-06T07:54:01.567Z,22.5
2023-09-06T07:55:01.471Z,22.4
2023-09-06T07:56:01.489Z,22.6
2023-09-06T07:57:01.469Z,22.7
2023-09-06T07:58:01.385Z,22.7
2023-09-06T07:59:01.426Z,22.4
2023-09-06T08:00:02.008Z,22.3
2023-09-06T08:01:15.860Z,22.3
2023-09-06T08:02:01.747Z,22.5
2023-09-06T08:03:01.718Z,22.8
2023-09-06T08:04:01.725Z,22.4
2023-09-06T08:05:01.724Z,22.8
2023-09-06T08:06:01.787Z,22.9
2023-09-06T08:07:01.855Z,22.8
2023-09-06T08:08:01.918Z,23
2023-09-06T08:09:01.900Z,23.1
2023-09-06T08:10:01.769Z,23.1
2023-09-06T08:11:01.759Z,22.9
2023-09-06T08:12:01.803Z,23
2023-09-06T08:13:01.663Z,23.2
2023-09-06T08:14:01.648Z,23.3
2023-09-06T08:15:01.609Z,23.4
2023-09-06T08:16:01.563Z,23.6
2023-09-06T08:17:01.471Z,23.2
2023-09-06T08:18:01.517Z,22.6
2023-09-06T08:19:01.481Z,23.3
2023-09-06T08:20:01.393Z,23.7
2023-09-06T08:21:01.390Z,23.7
2023-09-06T08:22:01.827Z,23.8
2023-09-06T08:23:01.750Z,23.4
2023-09-06T08:24:01.746Z,23.6
2023-09-06T08:25:01.674Z,23.7
2023-09-06T08:26:01.624Z,23.5
2023-09-06T08:27:01.598Z,23.6
2023-09-06T08:28:01.516Z,23.8
2023-09-06T08:29:01.493Z,23.8
2023-09-06T08:30:01.453Z,23.6
2023-09-06T08:31:01.585Z,23.9
2023-09-06T08:32:01.686Z,24.2
2023-09-06T08:33:01.723Z,24.3
2023-09-06T08:34:01.716Z,24.3
2023-09-06T08:35:01.620Z,24.3
2023-09-06T08:36:01.568Z,24.5
2023-09-06T08:37:01.559Z,24.6
2023-09-06T08:38:01.450Z,24.5
2023-09-06T08:39:01.439Z,24.4
2023-09-06T08:40:01.378Z,24.4
2023-09-06T08:41:01.355Z,24.7
2023-09-06T08:42:01.370Z,24.6
2023-09-06T08:43:01.280Z,24.5
2023-09-06T08:44:02.272Z,24.8
2023-09-06T08:45:02.252Z,24.8
2023-09-06T08:46:01.988Z,24.8
2023-09-06T08:47:01.926Z,24.8
2023-09-06T08:48:01.928Z,25
2023-09-06T08:49:01.924Z,25
2023-09-06T08:50:01.784Z,25.2
2023-09-06T08:51:01.786Z,25.2
2023-09-06T08:52:01.761Z,25.3
2023-09-06T08:53:01.667Z,25.2
2023-09-06T08:54:01.616Z,25.2
2023-09-06T08:55:01.585Z,25.4
2023-09-06T08:56:01.563Z,25.5
2023-09-06T08:57:01.617Z,25.4
2023-09-06T08:58:01.474Z,25.5
2023-09-06T08:59:01.444Z,25.7
2023-09-06T09:00:02.924Z,25.6
2023-09-06T09:01:02.154Z,25.5
2023-09-06T09:02:02.006Z,25.8
2023-09-06T09:03:01.976Z,25.9
2023-09-06T09:04:02.039Z,25.9
2023-09-06T09:05:13.968Z,26
2023-09-06T09:06:01.515Z,26
2023-09-06T09:07:01.516Z,26.1
2023-09-06T09:08:01.419Z,26.1
2023-09-06T09:09:01.410Z,26.1
2023-09-06T09:10:01.332Z,26.3
2023-09-06T09:11:01.312Z,26.3
2023-09-06T09:12:02.319Z,26.3
2023-09-06T09:13:02.432Z,26.2
2023-09-06T09:14:01.519Z,26.3
2023-09-06T09:15:10.470Z,26.4
2023-09-06T09:16:02.144Z,26.4
2023-09-06T09:17:02.055Z,26.3
2023-09-06T09:18:02.518Z,26.5
2023-09-06T09:19:01.370Z,26.1
2023-09-06T09:20:01.308Z,26.7
2023-09-06T09:21:01.270Z,26.9
2023-09-06T09:22:02.285Z,27
2023-09-06T09:23:02.235Z,26.9
2023-09-06T09:24:01.516Z,26.9
2023-09-06T09:25:01.500Z,27.2
2023-09-06T09:26:01.440Z,27.1
2023-09-06T09:27:01.407Z,26.5
2023-09-06T09:28:01.439Z,26.7
2023-09-06T09:29:01.363Z,26.9
2023-09-06T09:30:01.391Z,27
2023-09-06T09:31:02.260Z,27
2023-09-06T09:32:02.167Z,26.7
2023-09-06T09:33:02.300Z,26.7
2023-09-06T09:34:02.171Z,26.4
2023-09-06T09:35:02.153Z,26.6
2023-09-06T09:36:02.190Z,26.9
2023-09-06T09:37:02.141Z,27.2
2023-09-06T09:38:02.110Z,27.3
2023-09-06T09:39:01.532Z,26.2
2023-09-06T09:40:01.460Z,27.2
2023-09-06T09:41:01.445Z,27.4
2023-09-06T09:42:01.491Z,27.5
2023-09-06T09:43:01.389Z,27.6
2023-09-06T09:44:01.411Z,27.8
2023-09-06T09:45:01.367Z,27.9
2023-09-06T09:46:01.361Z,27.9
2023-09-06T09:47:05.851Z,27.5
2023-09-06T09:48:01.542Z,27.9
2023-09-06T09:49:01.928Z,28.1
2023-09-06T09:50:02.118Z,28
2023-09-06T09:51:02.104Z,28.1
2023-09-06T09:52:02.101Z,27.3
2023-09-06T09:53:11.485Z,28
2023-09-06T09:54:02.667Z,27.9
2023-09-06T09:55:01.317Z,27.9
2023-09-06T09:56:01.296Z,28
2023-09-06T09:57:02.263Z,27.4
2023-09-06T09:58:02.266Z,27.9
2023-09-06T09:59:02.374Z,27.8
2023-09-06T10:00:02.900Z,27.8
2023-09-06T10:01:02.161Z,28.1
2023-09-06T10:02:02.041Z,28.1
2023-09-06T10:03:01.998Z,27.2
2023-09-06T10:04:02.074Z,27.9
2023-09-06T10:05:02.439Z,28.1
2023-09-06T10:06:01.742Z,28.5
2023-09-06T10:07:01.706Z,28.7
2023-09-06T10:08:01.656Z,28.5
2023-09-06T10:09:01.620Z,28.3
2023-09-06T10:10:01.654Z,28.8
2023-09-06T10:11:01.499Z,28.7
2023-09-06T10:12:01.465Z,28.8
2023-09-06T10:13:01.452Z,28.8
2023-09-06T10:14:01.412Z,29
2023-09-06T10:15:01.453Z,29.4
2023-09-06T10:16:02.146Z,29.6
2023-09-06T10:17:02.142Z,29.7
2023-09-06T10:18:02.190Z,29.8
2023-09-06T10:19:02.150Z,29.5
2023-09-06T10:20:02.213Z,29.7
2023-09-06T10:21:02.090Z,29.2
2023-09-06T10:22:02.058Z,29.2
2023-09-06T10:23:02.057Z,29.3
2023-09-06T10:24:02.036Z,29.2
2023-09-06T10:25:02.001Z,29
2023-09-06T10:26:01.974Z,29.7
2023-09-06T10:27:01.922Z,29.4
2023-09-06T10:28:01.879Z,29.3
2023-09-06T10:29:01.879Z,29.6
2023-09-06T10:30:04.842Z,29.8
2023-09-06T10:31:01.876Z,29.9
2023-09-06T10:32:01.826Z,29.8
2023-09-06T10:33:01.832Z,29.8
2023-09-06T10:34:01.786Z,29.8
2023-09-06T10:35:01.685Z,30.3
2023-09-06T10:36:01.825Z,29.4
2023-09-06T10:37:01.728Z,29.8
2023-09-06T10:38:01.679Z,29.8
2023-09-06T10:39:01.627Z,30
2023-09-06T10:40:01.586Z,29.6
2023-09-06T10:41:01.538Z,29.7
2023-09-06T10:42:01.439Z,29.9
2023-09-06T10:43:01.430Z,30.2
2023-09-06T10:44:01.424Z,29.5
2023-09-06T10:45:01.464Z,29.1
2023-09-06T10:46:01.367Z,30
2023-09-06T10:47:01.370Z,30.4
2023-09-06T10:48:01.327Z,29.9
2023-09-06T10:49:02.304Z,29.6
2023-09-06T10:50:02.289Z,29.7
2023-09-06T10:51:02.307Z,29.9
2023-09-06T10:52:02.238Z,30.3
2023-09-06T10:53:02.221Z,30
2023-09-06T10:54:02.204Z,30.2
2023-09-06T10:55:02.302Z,29.9
2023-09-06T10:56:01.412Z,30.2
2023-09-06T10:57:03.717Z,30.4
2023-09-06T10:58:01.414Z,30.6
2023-09-06T10:59:01.373Z,30.4
2023-09-06T11:00:02.968Z,30.7
2023-09-06T11:01:01.398Z,31
2023-09-06T11:02:01.384Z,31.2
2023-09-06T11:03:01.484Z,31
2023-09-06T11:04:01.477Z,30.9
2023-09-06T11:05:01.360Z,30.8
2023-09-06T11:06:01.388Z,31
2023-09-06T11:07:01.345Z,31.1
2023-09-06T11:08:01.775Z,31.1
2023-09-06T11:09:01.666Z,31.1
2023-09-06T11:10:01.614Z,31
2023-09-06T11:11:01.685Z,30.8
2023-09-06T11:12:01.529Z,30.9
2023-09-06T11:13:01.546Z,30.9
2023-09-06T11:14:01.406Z,30.6
2023-09-06T11:15:01.380Z,30.9
2023-09-06T11:16:01.645Z,31.1
2023-09-06T11:17:01.614Z,31.1
2023-09-06T11:18:01.663Z,31.1
2023-09-06T11:19:01.495Z,31.3
2023-09-06T11:20:01.399Z,31.3
2023-09-06T11:21:01.410Z,31.3
2023-09-06T11:22:01.301Z,31.2
2023-09-06T11:23:02.309Z,31.1
2023-09-06T11:24:02.221Z,31.3
2023-09-06T11:25:02.178Z,31.3
2023-09-06T11:26:02.171Z,31.2
2023-09-06T11:27:02.130Z,30.8
2023-09-06T11:28:01.847Z,31.3
2023-09-06T11:29:01.939Z,31.6
2023-09-06T11:30:01.894Z,31.3
2023-09-06T11:31:01.920Z,31.5
2023-09-06T11:32:01.871Z,31.1
2023-09-06T11:33:01.844Z,31.1
2023-09-06T11:34:01.846Z,31.2
2023-09-06T11:35:01.914Z,31.3
2023-09-06T11:36:01.753Z,31.4
2023-09-06T11:37:01.839Z,31.2
2023-09-06T11:38:01.635Z,31.2
2023-09-06T11:39:01.693Z,31.4
2023-09-06T11:40:01.550Z,31.2
2023-09-06T11:41:01.587Z,30.8
2023-09-06T11:42:01.449Z,31.1
2023-09-06T11:43:01.475Z,31.5
2023-09-06T11:44:01.338Z,31.3
2023-09-06T11:45:01.397Z,31.3
2023-09-06T11:46:01.326Z,30.7
2023-09-06T11:47:01.505Z,31.1
2023-09-06T11:48:01.432Z,31.5
2023-09-06T11:49:01.457Z,31.6
2023-09-06T11:50:01.249Z,31.7
2023-09-06T11:51:02.274Z,31.6
2023-09-06T11:52:02.197Z,31.7
2023-09-06T11:53:02.262Z,31.9
2023-09-06T11:54:02.459Z,31.8
2023-09-06T11:55:02.291Z,31.9
2023-09-06T11:56:02.199Z,31.8
2023-09-06T11:57:02.318Z,31.7
2023-09-06T11:58:02.114Z,32
2023-09-06T11:59:02.126Z,32.3
2023-09-06T12:00:02.469Z,32.1
2023-09-06T12:01:01.408Z,32
2023-09-06T12:02:01.383Z,32.3
2023-09-06T12:03:01.420Z,32.4
2023-09-06T12:04:01.412Z,32.3
2023-09-06T12:05:01.248Z,32.3
2023-09-06T12:06:02.367Z,32.3
2023-09-06T12:07:02.281Z,32.2
2023-09-06T12:08:02.403Z,32.2
2023-09-06T12:09:02.255Z,32.1
2023-09-06T12:10:02.386Z,32.3
2023-09-06T12:11:02.189Z,32.5
2023-09-06T12:12:02.185Z,32.2
2023-09-06T12:13:02.101Z,32.4
2023-09-06T12:14:02.250Z,32.7
2023-09-06T12:15:02.094Z,32.4
2023-09-06T12:16:02.113Z,32.7
2023-09-06T12:17:02.140Z,32.5
2023-09-06T12:18:02.084Z,32.5
2023-09-06T12:19:02.174Z,32.1
2023-09-06T12:20:02.136Z,32.2
2023-09-06T12:21:02.084Z,32.4
2023-09-06T12:22:02.102Z,32.1
2023-09-06T12:23:01.937Z,32.3
2023-09-06T12:24:01.912Z,32.5
2023-09-06T12:25:01.921Z,32.5
2023-09-06T12:26:01.694Z,32.6
2023-09-06T12:27:01.874Z,32.7
2023-09-06T12:28:01.634Z,32.8
2023-09-06T12:29:03.149Z,32.9
2023-09-06T12:30:02.499Z,32.3
2023-09-06T12:31:01.320Z,32.5
2023-09-06T12:32:02.405Z,32.7
2023-09-06T12:33:02.232Z,33.1
2023-09-06T12:34:02.407Z,33.1
2023-09-06T12:35:02.212Z,32.1
2023-09-06T12:36:02.333Z,32.6
2023-09-06T12:37:02.156Z,32.6
2023-09-06T12:38:02.254Z,32.9
2023-09-06T12:39:02.056Z,33
2023-09-06T12:40:02.482Z,33.1
2023-09-06T12:41:02.313Z,32.9
2023-09-06T12:42:02.487Z,32.7
2023-09-06T12:43:03.275Z,32.7
2023-09-06T12:44:01.352Z,32.7
2023-09-06T12:45:01.532Z,32.5
2023-09-06T12:46:01.329Z,32.6
2023-09-06T12:47:01.418Z,33
2023-09-06T12:48:02.466Z,32.8
2023-09-06T12:49:01.585Z,32.2
2023-09-06T12:50:01.560Z,32.7
2023-09-06T12:51:01.461Z,32.6
2023-09-06T12:52:01.447Z,32.9
2023-09-06T12:53:01.393Z,33
2023-09-06T12:54:01.488Z,33
2023-09-06T12:55:01.301Z,33.1
2023-09-06T12:56:01.531Z,33.2
2023-09-06T12:57:01.381Z,33.1
2023-09-06T12:58:01.305Z,33.1
2023-09-06T12:59:02.341Z,33.1
2023-09-06T13:00:03.377Z,33.2
2023-09-06T13:01:02.212Z,33.2
2023-09-06T13:02:02.236Z,33.5
2023-09-06T13:03:02.157Z,33.2
2023-09-06T13:04:02.308Z,33.5
2023-09-06T13:05:01.459Z,33.4
2023-09-06T13:06:01.926Z,33.6
2023-09-06T13:07:01.727Z,33.7
2023-09-06T13:08:01.817Z,33.6
2023-09-06T13:09:01.693Z,33.5
2023-09-06T13:10:01.763Z,32.8
2023-09-06T13:11:01.717Z,33
2023-09-06T13:12:01.707Z,32.8
2023-09-06T13:13:01.820Z,32.9
2023-09-06T13:14:01.721Z,33.2
2023-09-06T13:15:01.672Z,33
2023-09-06T13:16:01.889Z,33.3
2023-09-06T13:17:01.981Z,33.4
2023-09-06T13:18:01.874Z,33.5
2023-09-06T13:19:01.994Z,33.4
2023-09-06T13:20:02.098Z,33.2
2023-09-06T13:21:01.861Z,32.9
2023-09-06T13:22:01.908Z,33.1
2023-09-06T13:23:01.898Z,33.2
2023-09-06T13:24:01.701Z,33